sensor_id;sensor_type;location;lat;lon;timestamp;P1;durP1;ratioP1;P2;durP2;ratioP2
21166;SDS011;10741;52.272;9.580;2023-06-22T00:00:42;9.87;;;8.33;;
21166;SDS011;10741;52.272;9.580;2023-06-22T00:03:09;10.73;;;8.13;;
21166;SDS011;10741;52.272;9.580;2023-06-22T00:05:35;9.27;;;8.23;;
21166;SDS011;10741;52.272;9.580;2023-06-22T00:08:04;9.70;;;8.23;;
21166;SDS011;10741;52.272;9.580;2023-06-22T00:10:30;9.57;;;7.83;;
21166;SDS011;10741;52.272;9.580;2023-06-22T00:12:56;8.93;;;7.90;;
21166;SDS011;10741;52.272;9.580;2023-06-22T00:15:22;8.23;;;7.43;;
21166;SDS011;10741;52.272;9.580;2023-06-22T00:17:47;9.30;;;8.40;;
21166;SDS011;10741;52.272;9.580;2023-06-22T00:20:14;10.43;;;8.20;;
21166;SDS011;10741;52.272;9.580;2023-06-22T00:22:39;13.43;;;8.33;;
21166;SDS011;10741;52.272;9.580;2023-06-22T00:25:08;12.03;;;8.40;;
21166;SDS011;10741;52.272;9.580;2023-06-22T00:27:34;12.77;;;8.63;;
21166;SDS011;10741;52.272;9.580;2023-06-22T00:30:01;10.57;;;8.00;;
21166;SDS011;10741;52.272;9.580;2023-06-22T00:32:27;10.80;;;9.57;;
21166;SDS011;10741;52.272;9.580;2023-06-22T00:34:53;13.07;;;8.37;;
21166;SDS011;10741;52.272;9.580;2023-06-22T00:37:18;8.40;;;7.60;;
21166;SDS011;10741;52.272;9.580;2023-06-22T00:39:44;13.17;;;8.73;;
21166;SDS011;10741;52.272;9.580;2023-06-22T00:42:10;9.63;;;7.77;;
21166;SDS011;10741;52.272;9.580;2023-06-22T00:44:36;9.60;;;8.70;;
21166;SDS011;10741;52.272;9.580;2023-06-22T00:47:02;13.17;;;9.17;;
21166;SDS011;10741;52.272;9.580;2023-06-22T00:49:28;10.07;;;8.87;;
21166;SDS011;10741;52.272;9.580;2023-06-22T00:51:54;9.73;;;8.70;;
21166;SDS011;10741;52.272;9.580;2023-06-22T00:54:22;10.33;;;9.33;;
21166;SDS011;10741;52.272;9.580;2023-06-22T00:56:53;9.73;;;8.83;;
21166;SDS011;10741;52.272;9.580;2023-06-22T00:59:23;9.07;;;8.27;;
21166;SDS011;10741;52.272;9.580;2023-06-22T01:01:51;10.37;;;9.20;;
21166;SDS011;10741;52.272;9.580;2023-06-22T01:04:17;10.07;;;9.13;;
21166;SDS011;10741;52.272;9.580;2023-06-22T01:06:58;12.10;;;9.13;;
21166;SDS011;10741;52.272;9.580;2023-06-22T01:09:33;9.67;;;8.63;;
21166;SDS011;10741;52.272;9.580;2023-06-22T01:12:04;12.37;;;9.20;;
21166;SDS011;10741;52.272;9.580;2023-06-22T01:14:35;9.30;;;8.30;;
21166;SDS011;10741;52.272;9.580;2023-06-22T01:17:07;9.07;;;8.07;;
21166;SDS011;10741;52.272;9.580;2023-06-22T01:19:39;12.53;;;8.63;;
21166;SDS011;10741;52.272;9.580;2023-06-22T01:22:12;14.07;;;9.30;;
21166;SDS011;10741;52.272;9.580;2023-06-22T01:24:45;14.20;;;8.50;;
21166;SDS011;10741;52.272;9.580;2023-06-22T01:27:17;13.07;;;8.53;;
21166;SDS011;10741;52.272;9.580;2023-06-22T01:29:57;9.80;;;8.03;;
21166;SDS011;10741;52.272;9.580;2023-06-22T01:32:31;11.97;;;8.37;;
21166;SDS011;10741;52.272;9.580;2023-06-22T01:35:00;9.90;;;8.60;;
21166;SDS011;10741;52.272;9.580;2023-06-22T01:37:28;10.00;;;8.30;;
21166;SDS011;10741;52.272;9.580;2023-06-22T01:39:57;10.73;;;9.00;;
21166;SDS011;10741;52.272;9.580;2023-06-22T01:42:24;9.73;;;8.73;;
21166;SDS011;10741;52.272;9.580;2023-06-22T01:44:54;9.20;;;7.53;;
21166;SDS011;10741;52.272;9.580;2023-06-22T01:47:24;9.97;;;8.33;;
21166;SDS011;10741;52.272;9.580;2023-06-22T01:49:50;10.03;;;8.60;;
21166;SDS011;10741;52.272;9.580;2023-06-22T01:52:17;9.70;;;8.07;;
21166;SDS011;10741;52.272;9.580;2023-06-22T01:54:44;9.40;;;8.40;;
21166;SDS011;10741;52.272;9.580;2023-06-22T01:57:09;9.50;;;8.30;;
21166;SDS011;10741;52.272;9.580;2023-06-22T02:02:13;9.47;;;7.90;;
21166;SDS011;10741;52.272;9.580;2023-06-22T02:04:54;9.90;;;8.90;;
21166;SDS011;10741;52.272;9.580;2023-06-22T02:07:23;9.77;;;8.77;;
21166;SDS011;10741;52.272;9.580;2023-06-22T02:09:59;8.80;;;7.87;;
21166;SDS011;10741;52.272;9.580;2023-06-22T02:12:27;9.30;;;8.33;;
21166;SDS011;10741;52.272;9.580;2023-06-22T02:14:54;8.93;;;8.03;;
21166;SDS011;10741;52.272;9.580;2023-06-22T02:17:20;9.13;;;8.33;;
21166;SDS011;10741;52.272;9.580;2023-06-22T02:19:46;9.03;;;8.20;;
21166;SDS011;10741;52.272;9.580;2023-06-22T02:22:12;9.83;;;8.17;;
21166;SDS011;10741;52.272;9.580;2023-06-22T02:24:38;9.03;;;8.23;;
21166;SDS011;10741;52.272;9.580;2023-06-22T02:27:04;12.47;;;8.73;;
21166;SDS011;10741;52.272;9.580;2023-06-22T02:29:32;9.40;;;8.30;;
21166;SDS011;10741;52.272;9.580;2023-06-22T02:31:58;9.80;;;8.40;;
21166;SDS011;10741;52.272;9.580;2023-06-22T02:34:24;10.17;;;8.53;;
21166;SDS011;10741;52.272;9.580;2023-06-22T02:36:50;10.93;;;8.30;;
21166;SDS011;10741;52.272;9.580;2023-06-22T02:39:24;9.70;;;8.27;;
21166;SDS011;10741;52.272;9.580;2023-06-22T02:41:50;10.47;;;8.67;;
21166;SDS011;10741;52.272;9.580;2023-06-22T02:44:19;9.97;;;8.97;;
21166;SDS011;10741;52.272;9.580;2023-06-22T02:46:46;9.33;;;8.40;;
21166;SDS011;10741;52.272;9.580;2023-06-22T02:49:12;11.20;;;7.70;;
21166;SDS011;10741;52.272;9.580;2023-06-22T02:51:38;9.33;;;8.37;;
21166;SDS011;10741;52.272;9.580;2023-06-22T02:54:07;9.93;;;8.57;;
21166;SDS011;10741;52.272;9.580;2023-06-22T02:56:32;11.00;;;8.57;;
21166;SDS011;10741;52.272;9.580;2023-06-22T02:58:58;9.73;;;8.73;;
21166;SDS011;10741;52.272;9.580;2023-06-22T03:01:29;10.27;;;9.33;;
21166;SDS011;10741;52.272;9.580;2023-06-22T03:03:58;9.87;;;8.80;;
21166;SDS011;10741;52.272;9.580;2023-06-22T03:06:24;9.40;;;8.57;;
21166;SDS011;10741;52.272;9.580;2023-06-22T03:08:57;9.83;;;8.90;;
21166;SDS011;10741;52.272;9.580;2023-06-22T03:11:30;10.57;;;9.27;;
21166;SDS011;10741;52.272;9.580;2023-06-22T03:13:56;10.70;;;8.83;;
21166;SDS011;10741;52.272;9.580;2023-06-22T03:16:22;10.73;;;8.53;;
21166;SDS011;10741;52.272;9.580;2023-06-22T03:18:48;11.63;;;8.87;;
21166;SDS011;10741;52.272;9.580;2023-06-22T03:21:13;9.77;;;8.77;;
21166;SDS011;10741;52.272;9.580;2023-06-22T03:23:40;10.43;;;8.77;;
21166;SDS011;10741;52.272;9.580;2023-06-22T03:26:08;9.10;;;8.17;;
21166;SDS011;10741;52.272;9.580;2023-06-22T03:28:34;9.43;;;8.43;;
21166;SDS011;10741;52.272;9.580;2023-06-22T03:31:00;10.43;;;9.20;;
21166;SDS011;10741;52.272;9.580;2023-06-22T03:33:26;11.40;;;9.30;;
21166;SDS011;10741;52.272;9.580;2023-06-22T03:35:52;14.23;;;10.27;;
21166;SDS011;10741;52.272;9.580;2023-06-22T03:38:18;10.50;;;9.60;;
21166;SDS011;10741;52.272;9.580;2023-06-22T03:40:44;13.27;;;9.07;;
21166;SDS011;10741;52.272;9.580;2023-06-22T03:43:10;11.23;;;9.50;;
21166;SDS011;10741;52.272;9.580;2023-06-22T03:45:36;10.70;;;9.60;;
21166;SDS011;10741;52.272;9.580;2023-06-22T03:48:02;12.43;;;11.00;;
21166;SDS011;10741;52.272;9.580;2023-06-22T03:50:28;11.43;;;10.10;;
21166;SDS011;10741;52.272;9.580;2023-06-22T03:52:54;10.63;;;9.60;;
21166;SDS011;10741;52.272;9.580;2023-06-22T03:55:20;11.47;;;10.40;;
21166;SDS011;10741;52.272;9.580;2023-06-22T03:57:46;10.60;;;9.60;;
21166;SDS011;10741;52.272;9.580;2023-06-22T04:00:12;11.43;;;10.23;;
21166;SDS011;10741;52.272;9.580;2023-06-22T04:02:38;11.17;;;9.93;;
21166;SDS011;10741;52.272;9.580;2023-06-22T04:05:04;11.30;;;10.07;;
21166;SDS011;10741;52.272;9.580;2023-06-22T04:07:30;12.33;;;10.57;;
21166;SDS011;10741;52.272;9.580;2023-06-22T04:09:56;11.33;;;10.33;;
21166;SDS011;10741;52.272;9.580;2023-06-22T04:12:22;12.20;;;11.00;;
21166;SDS011;10741;52.272;9.580;2023-06-22T04:14:47;14.13;;;11.30;;
21166;SDS011;10741;52.272;9.580;2023-06-22T04:17:13;15.23;;;10.93;;
21166;SDS011;10741;52.272;9.580;2023-06-22T04:19:40;11.93;;;10.40;;
21166;SDS011;10741;52.272;9.580;2023-06-22T04:22:07;11.67;;;10.57;;
21166;SDS011;10741;52.272;9.580;2023-06-22T04:24:33;12.87;;;10.60;;
21166;SDS011;10741;52.272;9.580;2023-06-22T04:26:59;12.27;;;11.13;;
21166;SDS011;10741;52.272;9.580;2023-06-22T04:29:27;12.13;;;10.77;;
21166;SDS011;10741;52.272;9.580;2023-06-22T04:31:55;11.90;;;10.80;;
21166;SDS011;10741;52.272;9.580;2023-06-22T04:34:23;13.70;;;11.63;;
21166;SDS011;10741;52.272;9.580;2023-06-22T04:36:52;12.13;;;10.93;;
21166;SDS011;10741;52.272;9.580;2023-06-22T04:39:18;12.87;;;11.57;;
21166;SDS011;10741;52.272;9.580;2023-06-22T04:41:44;13.97;;;11.57;;
21166;SDS011;10741;52.272;9.580;2023-06-22T04:44:14;14.37;;;11.67;;
21166;SDS011;10741;52.272;9.580;2023-06-22T04:46:50;15.97;;;11.90;;
21166;SDS011;10741;52.272;9.580;2023-06-22T04:49:24;12.37;;;11.07;;
21166;SDS011;10741;52.272;9.580;2023-06-22T04:51:57;13.63;;;12.23;;
21166;SDS011;10741;52.272;9.580;2023-06-22T04:54:24;15.07;;;13.37;;
21166;SDS011;10741;52.272;9.580;2023-06-22T04:56:49;17.07;;;12.83;;
21166;SDS011;10741;52.272;9.580;2023-06-22T04:59:22;14.70;;;12.60;;
21166;SDS011;10741;52.272;9.580;2023-06-22T05:01:54;15.27;;;13.73;;
21166;SDS011;10741;52.272;9.580;2023-06-22T05:04:21;17.13;;;14.77;;
21166;SDS011;10741;52.272;9.580;2023-06-22T05:06:48;16.50;;;14.80;;
21166;SDS011;10741;52.272;9.580;2023-06-22T05:09:14;18.53;;;15.90;;
21166;SDS011;10741;52.272;9.580;2023-06-22T05:11:40;18.13;;;16.23;;
21166;SDS011;10741;52.272;9.580;2023-06-22T05:14:06;19.60;;;17.60;;
21166;SDS011;10741;52.272;9.580;2023-06-22T05:16:32;18.07;;;16.27;;
21166;SDS011;10741;52.272;9.580;2023-06-22T05:18:58;18.30;;;16.37;;
21166;SDS011;10741;52.272;9.580;2023-06-22T05:21:24;17.37;;;15.63;;
21166;SDS011;10741;52.272;9.580;2023-06-22T05:23:51;19.27;;;17.43;;
21166;SDS011;10741;52.272;9.580;2023-06-22T05:26:19;19.73;;;17.47;;
21166;SDS011;10741;52.272;9.580;2023-06-22T05:28:46;18.00;;;16.03;;
21166;SDS011;10741;52.272;9.580;2023-06-22T05:31:16;24.73;;;17.43;;
21166;SDS011;10741;52.272;9.580;2023-06-22T05:33:42;19.97;;;18.03;;
21166;SDS011;10741;52.272;9.580;2023-06-22T05:36:08;23.37;;;17.67;;
21166;SDS011;10741;52.272;9.580;2023-06-22T05:38:35;20.30;;;18.20;;
21166;SDS011;10741;52.272;9.580;2023-06-22T05:41:01;18.80;;;16.93;;
21166;SDS011;10741;52.272;9.580;2023-06-22T05:43:27;20.07;;;18.03;;
21166;SDS011;10741;52.272;9.580;2023-06-22T05:45:53;19.53;;;17.70;;
21166;SDS011;10741;52.272;9.580;2023-06-22T05:48:19;20.10;;;18.00;;
21166;SDS011;10741;52.272;9.580;2023-06-22T05:50:45;19.73;;;17.80;;
21166;SDS011;10741;52.272;9.580;2023-06-22T05:53:11;19.33;;;17.53;;
21166;SDS011;10741;52.272;9.580;2023-06-22T05:55:37;20.43;;;18.43;;
21166;SDS011;10741;52.272;9.580;2023-06-22T05:58:02;19.63;;;17.60;;
21166;SDS011;10741;52.272;9.580;2023-06-22T06:00:28;18.40;;;16.60;;
21166;SDS011;10741;52.272;9.580;2023-06-22T06:02:54;21.43;;;19.30;;
21166;SDS011;10741;52.272;9.580;2023-06-22T06:05:20;21.10;;;18.70;;
21166;SDS011;10741;52.272;9.580;2023-06-22T06:07:54;21.47;;;19.13;;
21166;SDS011;10741;52.272;9.580;2023-06-22T06:10:19;19.27;;;17.37;;
21166;SDS011;10741;52.272;9.580;2023-06-22T06:12:46;19.30;;;17.40;;
21166;SDS011;10741;52.272;9.580;2023-06-22T06:15:12;19.23;;;17.47;;
21166;SDS011;10741;52.272;9.580;2023-06-22T06:17:47;20.00;;;17.93;;
21166;SDS011;10741;52.272;9.580;2023-06-22T06:20:20;20.33;;;18.33;;
21166;SDS011;10741;52.272;9.580;2023-06-22T06:22:47;21.17;;;18.97;;
21166;SDS011;10741;52.272;9.580;2023-06-22T06:25:13;20.90;;;18.87;;
21166;SDS011;10741;52.272;9.580;2023-06-22T06:27:48;20.87;;;18.83;;
21166;SDS011;10741;52.272;9.580;2023-06-22T06:30:16;19.53;;;17.53;;
21166;SDS011;10741;52.272;9.580;2023-06-22T06:32:43;19.37;;;17.47;;
21166;SDS011;10741;52.272;9.580;2023-06-22T06:35:10;20.87;;;18.87;;
21166;SDS011;10741;52.272;9.580;2023-06-22T06:37:41;20.57;;;18.07;;
21166;SDS011;10741;52.272;9.580;2023-06-22T06:40:08;18.70;;;16.70;;
21166;SDS011;10741;52.272;9.580;2023-06-22T06:42:38;18.23;;;16.53;;
21166;SDS011;10741;52.272;9.580;2023-06-22T06:45:10;18.93;;;16.63;;
21166;SDS011;10741;52.272;9.580;2023-06-22T06:47:36;18.17;;;16.37;;
21166;SDS011;10741;52.272;9.580;2023-06-22T06:50:03;19.97;;;17.97;;
21166;SDS011;10741;52.272;9.580;2023-06-22T06:52:30;19.23;;;16.77;;
21166;SDS011;10741;52.272;9.580;2023-06-22T06:54:55;19.73;;;17.67;;
21166;SDS011;10741;52.272;9.580;2023-06-22T06:57:21;19.60;;;17.50;;
21166;SDS011;10741;52.272;9.580;2023-06-22T06:59:48;21.60;;;19.43;;
21166;SDS011;10741;52.272;9.580;2023-06-22T07:02:15;19.83;;;17.83;;
21166;SDS011;10741;52.272;9.580;2023-06-22T07:04:41;19.73;;;17.63;;
21166;SDS011;10741;52.272;9.580;2023-06-22T07:07:06;18.67;;;16.67;;
21166;SDS011;10741;52.272;9.580;2023-06-22T07:09:32;19.10;;;17.17;;
21166;SDS011;10741;52.272;9.580;2023-06-22T07:11:58;20.20;;;18.23;;
21166;SDS011;10741;52.272;9.580;2023-06-22T07:14:24;18.77;;;17.00;;
21166;SDS011;10741;52.272;9.580;2023-06-22T07:16:49;20.07;;;17.60;;
21166;SDS011;10741;52.272;9.580;2023-06-22T07:19:15;20.27;;;17.80;;
21166;SDS011;10741;52.272;9.580;2023-06-22T07:21:41;18.90;;;17.10;;
21166;SDS011;10741;52.272;9.580;2023-06-22T07:24:07;16.70;;;14.93;;
21166;SDS011;10741;52.272;9.580;2023-06-22T07:26:33;17.13;;;15.43;;
21166;SDS011;10741;52.272;9.580;2023-06-22T07:28:59;17.20;;;15.40;;
21166;SDS011;10741;52.272;9.580;2023-06-22T07:31:25;15.60;;;14.00;;
21166;SDS011;10741;52.272;9.580;2023-06-22T07:33:51;15.80;;;14.30;;
21166;SDS011;10741;52.272;9.580;2023-06-22T07:36:17;17.20;;;13.73;;
21166;SDS011;10741;52.272;9.580;2023-06-22T07:38:43;16.13;;;14.03;;
21166;SDS011;10741;52.272;9.580;2023-06-22T07:41:09;14.13;;;12.83;;
21166;SDS011;10741;52.272;9.580;2023-06-22T07:43:35;15.13;;;13.53;;
21166;SDS011;10741;52.272;9.580;2023-06-22T07:46:05;17.97;;;12.93;;
21166;SDS011;10741;52.272;9.580;2023-06-22T07:48:31;19.50;;;14.07;;
21166;SDS011;10741;52.272;9.580;2023-06-22T07:50:57;15.60;;;13.50;;
21166;SDS011;10741;52.272;9.580;2023-06-22T07:53:23;17.07;;;13.70;;
21166;SDS011;10741;52.272;9.580;2023-06-22T07:55:49;16.13;;;12.90;;
21166;SDS011;10741;52.272;9.580;2023-06-22T07:58:15;15.13;;;13.53;;
21166;SDS011;10741;52.272;9.580;2023-06-22T08:00:43;19.80;;;13.80;;
21166;SDS011;10741;52.272;9.580;2023-06-22T08:03:09;14.93;;;13.53;;
21166;SDS011;10741;52.272;9.580;2023-06-22T08:05:35;17.20;;;14.37;;
21166;SDS011;10741;52.272;9.580;2023-06-22T08:08:01;15.77;;;12.33;;
21166;SDS011;10741;52.272;9.580;2023-06-22T08:10:27;13.60;;;12.13;;
21166;SDS011;10741;52.272;9.580;2023-06-22T08:12:52;17.33;;;13.37;;
21166;SDS011;10741;52.272;9.580;2023-06-22T08:15:18;13.57;;;12.07;;
21166;SDS011;10741;52.272;9.580;2023-06-22T08:17:45;16.13;;;12.77;;
21166;SDS011;10741;52.272;9.580;2023-06-22T08:20:13;14.50;;;13.10;;
21166;SDS011;10741;52.272;9.580;2023-06-22T08:22:39;14.63;;;13.13;;
21166;SDS011;10741;52.272;9.580;2023-06-22T08:25:06;15.03;;;13.40;;
21166;SDS011;10741;52.272;9.580;2023-06-22T08:27:32;15.43;;;13.10;;
21166;SDS011;10741;52.272;9.580;2023-06-22T08:29:58;13.80;;;12.30;;
21166;SDS011;10741;52.272;9.580;2023-06-22T08:32:25;15.47;;;12.93;;
21166;SDS011;10741;52.272;9.580;2023-06-22T08:34:55;15.40;;;12.40;;
21166;SDS011;10741;52.272;9.580;2023-06-22T08:37:22;24.13;;;13.20;;
21166;SDS011;10741;52.272;9.580;2023-06-22T08:39:59;13.93;;;11.70;;
21166;SDS011;10741;52.272;9.580;2023-06-22T08:42:26;14.67;;;13.10;;
21166;SDS011;10741;52.272;9.580;2023-06-22T08:44:52;15.07;;;11.83;;
21166;SDS011;10741;52.272;9.580;2023-06-22T08:47:19;13.23;;;11.83;;
21166;SDS011;10741;52.272;9.580;2023-06-22T08:49:45;12.60;;;11.40;;
21166;SDS011;10741;52.272;9.580;2023-06-22T08:52:11;13.23;;;11.83;;
21166;SDS011;10741;52.272;9.580;2023-06-22T08:54:36;12.53;;;11.20;;
21166;SDS011;10741;52.272;9.580;2023-06-22T08:57:02;12.23;;;10.80;;
21166;SDS011;10741;52.272;9.580;2023-06-22T08:59:28;13.60;;;12.20;;
21166;SDS011;10741;52.272;9.580;2023-06-22T09:01:54;13.93;;;11.37;;
21166;SDS011;10741;52.272;9.580;2023-06-22T09:04:20;13.37;;;11.97;;
21166;SDS011;10741;52.272;9.580;2023-06-22T09:06:47;14.47;;;12.13;;
21166;SDS011;10741;52.272;9.580;2023-06-22T09:09:15;15.73;;;11.60;;
21166;SDS011;10741;52.272;9.580;2023-06-22T09:11:41;12.83;;;10.90;;
21166;SDS011;10741;52.272;9.580;2023-06-22T09:14:08;14.20;;;11.13;;
21166;SDS011;10741;52.272;9.580;2023-06-22T09:16:34;14.77;;;11.27;;
21166;SDS011;10741;52.272;9.580;2023-06-22T09:19:00;14.13;;;11.97;;
21166;SDS011;10741;52.272;9.580;2023-06-22T09:21:26;16.33;;;12.63;;
21166;SDS011;10741;52.272;9.580;2023-06-22T09:23:51;15.60;;;12.33;;
21166;SDS011;10741;52.272;9.580;2023-06-22T09:26:18;14.07;;;12.30;;
21166;SDS011;10741;52.272;9.580;2023-06-22T09:28:44;13.27;;;11.93;;
21166;SDS011;10741;52.272;9.580;2023-06-22T09:31:10;12.97;;;11.53;;
21166;SDS011;10741;52.272;9.580;2023-06-22T09:33:36;14.23;;;12.73;;
21166;SDS011;10741;52.272;9.580;2023-06-22T09:36:04;13.23;;;11.20;;
21166;SDS011;10741;52.272;9.580;2023-06-22T09:38:34;14.80;;;11.57;;
21166;SDS011;10741;52.272;9.580;2023-06-22T09:41:01;15.73;;;11.97;;
21166;SDS011;10741;52.272;9.580;2023-06-22T09:43:27;13.87;;;11.37;;
21166;SDS011;10741;52.272;9.580;2023-06-22T09:45:52;15.30;;;11.80;;
21166;SDS011;10741;52.272;9.580;2023-06-22T09:48:18;12.87;;;11.53;;
21166;SDS011;10741;52.272;9.580;2023-06-22T09:50:44;13.23;;;10.97;;
21166;SDS011;10741;52.272;9.580;2023-06-22T09:53:10;14.00;;;11.93;;
21166;SDS011;10741;52.272;9.580;2023-06-22T09:55:35;13.57;;;10.60;;
21166;SDS011;10741;52.272;9.580;2023-06-22T09:58:01;14.37;;;11.53;;
21166;SDS011;10741;52.272;9.580;2023-06-22T10:00:27;14.97;;;11.60;;
21166;SDS011;10741;52.272;9.580;2023-06-22T10:02:53;14.93;;;11.73;;
21166;SDS011;10741;52.272;9.580;2023-06-22T10:05:19;14.53;;;12.17;;
21166;SDS011;10741;52.272;9.580;2023-06-22T10:07:44;14.27;;;11.87;;
21166;SDS011;10741;52.272;9.580;2023-06-22T10:10:11;11.60;;;10.40;;
21166;SDS011;10741;52.272;9.580;2023-06-22T10:12:40;12.63;;;11.23;;
21166;SDS011;10741;52.272;9.580;2023-06-22T10:15:19;13.80;;;12.50;;
21166;SDS011;10741;52.272;9.580;2023-06-22T10:17:46;17.53;;;12.63;;
21166;SDS011;10741;52.272;9.580;2023-06-22T10:20:12;13.20;;;11.63;;
21166;SDS011;10741;52.272;9.580;2023-06-22T10:22:39;13.80;;;11.73;;
21166;SDS011;10741;52.272;9.580;2023-06-22T10:25:06;16.37;;;12.40;;
21166;SDS011;10741;52.272;9.580;2023-06-22T10:27:32;13.53;;;12.07;;
21166;SDS011;10741;52.272;9.580;2023-06-22T10:29:58;14.27;;;12.20;;
21166;SDS011;10741;52.272;9.580;2023-06-22T10:32:24;16.60;;;13.17;;
21166;SDS011;10741;52.272;9.580;2023-06-22T10:34:50;13.77;;;12.40;;
21166;SDS011;10741;52.272;9.580;2023-06-22T10:37:15;15.63;;;12.60;;
21166;SDS011;10741;52.272;9.580;2023-06-22T10:39:41;16.07;;;12.70;;
21166;SDS011;10741;52.272;9.580;2023-06-22T10:42:07;15.80;;;12.50;;
21166;SDS011;10741;52.272;9.580;2023-06-22T10:44:33;20.23;;;13.40;;
21166;SDS011;10741;52.272;9.580;2023-06-22T10:46:58;16.07;;;12.83;;
21166;SDS011;10741;52.272;9.580;2023-06-22T10:49:24;16.47;;;13.87;;
21166;SDS011;10741;52.272;9.580;2023-06-22T10:51:50;18.90;;;14.20;;
21166;SDS011;10741;52.272;9.580;2023-06-22T10:54:15;15.63;;;14.13;;
21166;SDS011;10741;52.272;9.580;2023-06-22T10:56:43;14.57;;;12.90;;
21166;SDS011;10741;52.272;9.580;2023-06-22T10:59:09;17.17;;;12.83;;
21166;SDS011;10741;52.272;9.580;2023-06-22T11:01:38;14.53;;;13.03;;
21166;SDS011;10741;52.272;9.580;2023-06-22T11:04:04;14.50;;;13.10;;
21166;SDS011;10741;52.272;9.580;2023-06-22T11:06:29;14.43;;;12.97;;
21166;SDS011;10741;52.272;9.580;2023-06-22T11:08:55;14.87;;;12.00;;
21166;SDS011;10741;52.272;9.580;2023-06-22T11:11:21;15.77;;;13.10;;
21166;SDS011;10741;52.272;9.580;2023-06-22T11:13:47;15.77;;;12.90;;
21166;SDS011;10741;52.272;9.580;2023-06-22T11:16:12;15.67;;;14.17;;
21166;SDS011;10741;52.272;9.580;2023-06-22T11:18:41;15.20;;;13.60;;
21166;SDS011;10741;52.272;9.580;2023-06-22T11:21:07;16.27;;;13.47;;
21166;SDS011;10741;52.272;9.580;2023-06-22T11:23:33;15.20;;;13.80;;
21166;SDS011;10741;52.272;9.580;2023-06-22T11:25:58;16.73;;;13.43;;
21166;SDS011;10741;52.272;9.580;2023-06-22T11:28:24;14.67;;;13.17;;
21166;SDS011;10741;52.272;9.580;2023-06-22T11:30:50;15.70;;;14.07;;
21166;SDS011;10741;52.272;9.580;2023-06-22T11:33:16;17.37;;;15.57;;
21166;SDS011;10741;52.272;9.580;2023-06-22T11:35:42;15.23;;;13.70;;
21166;SDS011;10741;52.272;9.580;2023-06-22T11:38:07;15.17;;;13.57;;
21166;SDS011;10741;52.272;9.580;2023-06-22T11:40:33;16.47;;;14.90;;
21166;SDS011;10741;52.272;9.580;2023-06-22T11:42:59;15.87;;;14.20;;
21166;SDS011;10741;52.272;9.580;2023-06-22T11:45:25;16.43;;;13.30;;
21166;SDS011;10741;52.272;9.580;2023-06-22T11:47:50;16.40;;;14.80;;
21166;SDS011;10741;52.272;9.580;2023-06-22T11:50:16;14.33;;;12.93;;
21166;SDS011;10741;52.272;9.580;2023-06-22T11:52:42;17.33;;;15.70;;
21166;SDS011;10741;52.272;9.580;2023-06-22T11:55:08;13.83;;;12.53;;
21166;SDS011;10741;52.272;9.580;2023-06-22T11:57:35;14.23;;;12.93;;
21166;SDS011;10741;52.272;9.580;2023-06-22T12:00:02;14.73;;;13.33;;
21166;SDS011;10741;52.272;9.580;2023-06-22T12:02:39;14.87;;;13.57;;
21166;SDS011;10741;52.272;9.580;2023-06-22T12:05:05;14.20;;;13.00;;
21166;SDS011;10741;52.272;9.580;2023-06-22T12:07:31;13.13;;;11.87;;
21166;SDS011;10741;52.272;9.580;2023-06-22T12:09:57;14.17;;;12.83;;
21166;SDS011;10741;52.272;9.580;2023-06-22T12:12:22;13.33;;;11.93;;
21166;SDS011;10741;52.272;9.580;2023-06-22T12:14:48;14.93;;;13.33;;
21166;SDS011;10741;52.272;9.580;2023-06-22T12:17:14;13.37;;;12.17;;
21166;SDS011;10741;52.272;9.580;2023-06-22T12:19:39;13.43;;;12.03;;
21166;SDS011;10741;52.272;9.580;2023-06-22T12:22:05;12.70;;;11.60;;
21166;SDS011;10741;52.272;9.580;2023-06-22T12:24:31;14.23;;;12.40;;
21166;SDS011;10741;52.272;9.580;2023-06-22T12:26:57;13.20;;;11.93;;
21166;SDS011;10741;52.272;9.580;2023-06-22T12:29:22;12.60;;;11.43;;
21166;SDS011;10741;52.272;9.580;2023-06-22T12:31:48;13.40;;;12.10;;
21166;SDS011;10741;52.272;9.580;2023-06-22T12:34:14;12.43;;;11.10;;
21166;SDS011;10741;52.272;9.580;2023-06-22T12:36:39;12.13;;;11.13;;
21166;SDS011;10741;52.272;9.580;2023-06-22T12:39:05;12.97;;;11.73;;
21166;SDS011;10741;52.272;9.580;2023-06-22T12:41:31;11.93;;;10.73;;
21166;SDS011;10741;52.272;9.580;2023-06-22T12:43:57;12.67;;;11.37;;
21166;SDS011;10741;52.272;9.580;2023-06-22T12:46:23;12.87;;;11.57;;
21166;SDS011;10741;52.272;9.580;2023-06-22T12:48:48;11.87;;;10.77;;
21166;SDS011;10741;52.272;9.580;2023-06-22T12:51:20;12.60;;;11.40;;
21166;SDS011;10741;52.272;9.580;2023-06-22T12:53:47;12.73;;;11.47;;
21166;SDS011;10741;52.272;9.580;2023-06-22T12:56:12;11.90;;;10.70;;
21166;SDS011;10741;52.272;9.580;2023-06-22T12:58:38;12.73;;;11.43;;
21166;SDS011;10741;52.272;9.580;2023-06-22T13:01:04;15.27;;;13.00;;
21166;SDS011;10741;52.272;9.580;2023-06-22T13:03:29;13.30;;;12.00;;
21166;SDS011;10741;52.272;9.580;2023-06-22T13:05:55;14.17;;;12.70;;
21166;SDS011;10741;52.272;9.580;2023-06-22T13:08:21;13.30;;;12.10;;
21166;SDS011;10741;52.272;9.580;2023-06-22T13:10:47;15.70;;;14.20;;
21166;SDS011;10741;52.272;9.580;2023-06-22T13:13:12;15.23;;;13.47;;
21166;SDS011;10741;52.272;9.580;2023-06-22T13:15:38;14.77;;;13.27;;
21166;SDS011;10741;52.272;9.580;2023-06-22T13:18:04;16.33;;;14.83;;
21166;SDS011;10741;52.272;9.580;2023-06-22T13:20:29;15.10;;;13.70;;
21166;SDS011;10741;52.272;9.580;2023-06-22T13:22:55;14.40;;;13.10;;
21166;SDS011;10741;52.272;9.580;2023-06-22T13:25:21;15.67;;;13.93;;
21166;SDS011;10741;52.272;9.580;2023-06-22T13:27:51;14.17;;;12.83;;
21166;SDS011;10741;52.272;9.580;2023-06-22T13:30:17;15.27;;;13.80;;
21166;SDS011;10741;52.272;9.580;2023-06-22T13:32:43;14.77;;;13.37;;
21166;SDS011;10741;52.272;9.580;2023-06-22T13:35:09;14.70;;;13.30;;
21166;SDS011;10741;52.272;9.580;2023-06-22T13:37:35;15.53;;;13.93;;
21166;SDS011;10741;52.272;9.580;2023-06-22T13:40:01;14.37;;;12.87;;
21166;SDS011;10741;52.272;9.580;2023-06-22T13:42:30;15.27;;;13.87;;
21166;SDS011;10741;52.272;9.580;2023-06-22T13:44:56;15.33;;;13.83;;
21166;SDS011;10741;52.272;9.580;2023-06-22T13:47:22;16.10;;;14.57;;
21166;SDS011;10741;52.272;9.580;2023-06-22T13:49:47;14.57;;;13.07;;
21166;SDS011;10741;52.272;9.580;2023-06-22T13:52:13;15.10;;;13.60;;
21166;SDS011;10741;52.272;9.580;2023-06-22T13:54:39;14.33;;;12.90;;
21166;SDS011;10741;52.272;9.580;2023-06-22T13:57:05;16.13;;;14.53;;
21166;SDS011;10741;52.272;9.580;2023-06-22T13:59:31;16.40;;;14.70;;
21166;SDS011;10741;52.272;9.580;2023-06-22T14:01:56;16.37;;;14.80;;
21166;SDS011;10741;52.272;9.580;2023-06-22T14:04:25;16.73;;;15.13;;
21166;SDS011;10741;52.272;9.580;2023-06-22T14:06:51;17.93;;;16.27;;
21166;SDS011;10741;52.272;9.580;2023-06-22T14:09:16;19.33;;;17.33;;
21166;SDS011;10741;52.272;9.580;2023-06-22T14:11:42;21.80;;;17.70;;
21166;SDS011;10741;52.272;9.580;2023-06-22T14:14:08;20.13;;;17.80;;
21166;SDS011;10741;52.272;9.580;2023-06-22T14:16:33;19.17;;;17.17;;
21166;SDS011;10741;52.272;9.580;2023-06-22T14:18:59;19.40;;;17.60;;
21166;SDS011;10741;52.272;9.580;2023-06-22T14:21:25;19.33;;;17.43;;
21166;SDS011;10741;52.272;9.580;2023-06-22T14:23:51;18.50;;;16.70;;
21166;SDS011;10741;52.272;9.580;2023-06-22T14:26:17;17.57;;;15.87;;